Aeroporto :
LOGIN :

Iscrizione | Disclaimer

   EN    FR    IT 

 










Sommario :    VFR   VFR Marginale   IFR   IFR Intensivo   IFR Molto Intensivo
Visibilità : 
Base nubi : 
>= 8 km
>= 3000ft
5 / 8 km
1000 / 3000 ft
1500m / 5 km
500 / 1000 ft
800 / 1500m
200 / 500 ft
< 800m
< 200 ft
Simboli :   Temporali  Nebbia  Neve Forte  Precipitazioni Forti  Vento > 20 kt
SIGMETs :   Varie  Temporali  Ghiacco  Turbolenza  Onda orograficha  Ceneri Vulcaniche






- Altitudine del aeroporto : 57 ft
- Codice IATA : KRS


ENCN - Kristiansand Kjevik

ULTIMO METAR :
  • 290720Z VRB02KT CAVOK 15/06 Q1031

METARs OBSOLETI :
  • 290650Z VRB02KT CAVOK 14/06 Q1031
  • 290620Z 06005KT CAVOK 12/06 Q1031
  • 290550Z 06003KT CAVOK 11/05 Q1031
  • 290520Z 05004KT CAVOK 08/05 Q1031
  • 290450Z 06005KT CAVOK 07/04 Q1031

TAF TAF ENCN
Valido dal 29 a 06 ore il 29 a 15 ore UTC


290500Z 2906/2915 08007KT CAVOK
BECMG 2912/2914 21010KT



MetMap, La meteo Aeronautica in un colpo d'occhio ! - Copyright ORBIFLY Dicembre 2007 - Disclaimer

ORBIFLY MET'MAP TEAM :

Programmazione e sviluppo : Alexandra Zaïnal
Concezione : Baudouin d'Aumeries
Aiuto per la programmazione : Marc-Olivier Méhu
Supporto tecnico e logistico : Manuel Goepfert
Aiuto per la traduzione : Arnaldo La Scala

Contatto : metmap@orbifly.com




FONTI E CREDITI :

   NOAA